Carrier Princess — CZ3582 — position and weather

sailwx.info

Track history (hours):
 
Tides and Currents Weather Stations Pressure Air Temp Water Temp Dewpoint Dewpoint Depression Visibility Wind Speed Wind Dir Waves Ship Positions

Carrier Princess

Last reported at 2014-Jul-23 17:33 UTC. Time now 2014-Jul-23 18:11 UTC.
Position N 48°41' W 123°24'.

Length 112 m; draft 3 m.

Type: Cargo ship. MMSI: 316003656.

Date/timePositionNaut miles runAvg speedWind from/ knotsBaromVisibWave heightAir tempDewpointWater temp
2014-Jul-23 17:33N 48°41' W 123°24'0 0.0
2014-Jul-23 16:33N 48°41' W 123°24'0 0.0
2014-Jul-23 15:33N 48°41' W 123°24'0 0.0
2014-Jul-23 14:33N 48°41' W 123°24'0 0.0
2014-Jul-23 13:33N 48°41' W 123°24'0 0.0
2014-Jul-23 12:33N 48°41' W 123°24'1 0.9
2014-Jul-23 11:33N 48°42' W 123°24'1414.0
2014-Jul-23 10:33N 48°56' W 123°19'1212.5
2014-Jul-23 09:33N 49°08' W 123°14'8 8.0
2014-Jul-23 08:33N 49°09' W 123°02'0 0.0
2014-Jul-23 07:33N 49°09' W 123°02'7 6.7
2014-Jul-23 06:33N 49°07' W 123°12'1212.0
2014-Jul-23 05:33N 49°09' W 123°31'1312.6
2014-Jul-23 04:33N 49°13' W 123°49'6 5.7
2014-Jul-23 03:33N 49°10' W 123°56'0 0.1
2014-Jul-23 02:33N 49°10' W 123°56'1110.9
2014-Jul-23 01:34N 49°12' W 123°39'1413.5
2014-Jul-23 00:34N 49°06' W 123°21'1211.6
2014-Jul-22 23:33N 49°08' W 123°03'1 0.8
2014-Jul-22 22:33N 49°09' W 123°02'4 4.3
2014-Jul-22 21:33N 49°06' W 123°08'9 9.0
2014-Jul-22 20:33N 49°02' W 123°20'1211.5
2014-Jul-22 19:32N 48°51' W 123°21'10 9.8
2014-Jul-22 18:34N 48°41' W 123°24'0 0.0
2014-Jul-22 17:34N 48°41' W 123°24'0 0.0
2014-Jul-22 16:33N 48°41' W 123°24'0 0.0
2014-Jul-22 15:34N 48°41' W 123°24'0 0.0
2014-Jul-22 14:33N 48°41' W 123°24'0 0.0
2014-Jul-22 13:33N 48°41' W 123°24'0 0.0
2014-Jul-22 12:33N 48°41' W 123°24'0 0.2
2014-Jul-22 11:33N 48°41' W 123°24'1818.4
2014-Jul-22 10:33N 48°60' W 123°20'9 9.3
2014-Jul-22 09:34N 49°07' W 123°12'7 6.6
2014-Jul-22 08:33N 49°09' W 123°02'0 0.0
2014-Jul-22 07:33N 49°09' W 123°02'9 9.1
2014-Jul-22 06:33N 49°07' W 123°16'1212.1
2014-Jul-22 05:33N 49°09' W 123°34'1312.7
2014-Jul-22 04:33N 49°12' W 123°53'2 2.3
2014-Jul-22 03:33N 49°10' W 123°56'0 0.4
2014-Jul-22 02:33N 49°10' W 123°55'1111.4
2014-Jul-22 01:33N 49°12' W 123°38'1413.6
2014-Jul-22 00:34N 49°06' W 123°19'1111.5
2014-Jul-21 23:33N 49°09' W 123°02'0 0.1
2014-Jul-21 22:34N 49°09' W 123°02'0 0.1
2014-Jul-21 21:33N 49°09' W 123°02'0 0.0
2014-Jul-21 20:33N 49°09' W 123°02'0 0.0
2014-Jul-21 20:18N 49°09' W 123°02'0 0.0
2014-Jul-21 19:33N 49°09' W 123°02'0 0.0
2014-Jul-21 18:34N 49°09' W 123°02'0 0.0
2014-Jul-21 17:33N 49°09' W 123°02'0 0.0
2014-Jul-21 16:33N 49°09' W 123°02'0 0.0
2014-Jul-21 15:34N 49°09' W 123°02'0 0.0
2014-Jul-21 14:34N 49°09' W 123°02'0 0.0
2014-Jul-21 13:33N 49°09' W 123°02'0 0.0
2014-Jul-21 12:33N 49°09' W 123°02'0 0.0
2014-Jul-21 11:33N 49°09' W 123°02'0 0.0
2014-Jul-21 10:34N 49°09' W 123°02'0 0.0
2014-Jul-21 09:34N 49°09' W 123°02'0 0.0
2014-Jul-21 08:34N 49°09' W 123°02'0 0.0
2014-Jul-21 07:34N 49°09' W 123°02'0 0.0
2014-Jul-21 06:33N 49°09' W 123°02'0 0.0
2014-Jul-21 05:34N 49°09' W 123°02'0 0.0
2014-Jul-21 04:34N 49°09' W 123°02'0 0.0
2014-Jul-21 03:33N 49°09' W 123°02'0 0.0
2014-Jul-21 02:33N 49°09' W 123°02'0 0.0
2014-Jul-21 01:34N 49°09' W 123°02'0 0.0
2014-Jul-21 00:33N 49°09' W 123°02'0 0.0
2014-Jul-20 23:34N 49°09' W 123°02'0 0.0
2014-Jul-20 22:33N 49°09' W 123°02'0 0.0
2014-Jul-20 21:34N 49°09' W 123°02'0 0.0
2014-Jul-20 20:34N 49°09' W 123°02'0 0.0
2014-Jul-20 19:33N 49°09' W 123°02'0 0.0
2014-Jul-20 18:33N 49°09' W 123°02'0 0.0
2014-Jul-20 17:33N 49°09' W 123°02'0 0.0
2014-Jul-20 16:34N 49°09' W 123°02'0 0.0
2014-Jul-20 15:34N 49°09' W 123°02'6 6.3
2014-Jul-20 14:34N 49°07' W 123°11'9 9.0
2014-Jul-20 13:34N 49°07' W 123°25'1110.7
2014-Jul-20 12:34N 49°11' W 123°41'9 9.4
2014-Jul-20 11:33N 49°10' W 123°55'1 0.5
2014-Jul-20 10:33N 49°10' W 123°56'0 0.0
2014-Jul-20 09:33N 49°10' W 123°56'7 6.9
2014-Jul-20 08:33N 49°13' W 123°47'10 9.7
2014-Jul-20 07:34N 49°10' W 123°33'10 9.9
2014-Jul-20 06:34N 49°06' W 123°19'1110.5
2014-Jul-20 05:33N 49°08' W 123°03'1 0.7
2014-Jul-20 04:33N 49°09' W 123°02'0 0.0
2014-Jul-20 03:33N 49°09' W 123°02'0 0.0
2014-Jul-20 02:33N 49°09' W 123°02'0 0.0
2014-Jul-20 01:33N 49°09' W 123°02'0 0.0
2014-Jul-20 00:34N 49°09' W 123°02'0 0.0
2014-Jul-19 23:33N 49°09' W 123°02'0 0.0
2014-Jul-19 22:34N 49°09' W 123°02'4 3.7
2014-Jul-19 21:33N 49°07' W 123°07'1211.7
2014-Jul-19 20:33N 49°07' W 123°25'1313.2
2014-Jul-19 19:34N 49°12' W 123°43'8 8.2
2014-Jul-19 18:33N 49°10' W 123°56'0 0.0
2014-Jul-19 17:34N 49°10' W 123°56'0 0.0
2014-Jul-19 16:33N 49°10' W 123°56'0 0.0
2014-Jul-19 15:33N 49°10' W 123°56'0 0.0
2014-Jul-19 14:33N 49°10' W 123°56'0 0.0
2014-Jul-19 13:34N 49°10' W 123°56'0 0.0
2014-Jul-19 12:34N 49°10' W 123°56'5 5.4
2014-Jul-19 11:34N 49°13' W 123°49'1212.2
2014-Jul-19 10:33N 49°09' W 123°32'1313.0
2014-Jul-19 09:33N 49°07' W 123°12'7 6.7
2014-Jul-19 08:33N 49°09' W 123°02'0 0.0
2014-Jul-19 07:33N 49°09' W 123°02'9 9.2
2014-Jul-19 06:34N 49°07' W 123°16'1111.4
2014-Jul-19 05:33N 49°09' W 123°33'1111.2
2014-Jul-19 04:34N 49°13' W 123°49'5 5.2
2014-Jul-19 03:34N 49°10' W 123°56'0 0.2
2014-Jul-19 02:33N 49°10' W 123°55'1110.7
2014-Jul-19 01:34N 49°12' W 123°39'1312.5
2014-Jul-19 00:33N 49°07' W 123°22'1312.9
2014-Jul-18 23:33N 49°09' W 123°02'0 0.2
2014-Jul-18 22:33N 49°09' W 123°02'5 5.1
2014-Jul-18 21:33N 49°06' W 123°09'9 8.7
2014-Jul-18 20:33N 49°01' W 123°20'1010.3
2014-Jul-18 19:33N 48°51' W 123°21'1010.0
2014-Jul-18 18:33N 48°41' W 123°24'0 0.0
2014-Jul-18 17:34N 48°41' W 123°24'0 0.0
2014-Jul-18 16:33N 48°41' W 123°24'0 0.0
2014-Jul-18 15:33N 48°41' W 123°24'0 0.0
2014-Jul-18 14:33N 48°41' W 123°24'0 0.0
2014-Jul-18 13:34N 48°41' W 123°24'0 0.0
2014-Jul-18 12:34N 48°41' W 123°24'3 2.8
2014-Jul-18 11:33N 48°43' W 123°21'1010.4
2014-Jul-18 10:34N 48°53' W 123°18'1413.6
2014-Jul-18 09:33N 49°07' W 123°17'1010.0
2014-Jul-18 08:33N 49°09' W 123°02'0 0.0
2014-Jul-18 07:33N 49°09' W 123°02'9 9.0
2014-Jul-18 06:33N 49°07' W 123°16'1111.3
2014-Jul-18 05:33N 49°09' W 123°33'1211.6
2014-Jul-18 04:33N 49°13' W 123°50'5 4.9
2014-Jul-18 03:33N 49°10' W 123°56'0 0.1
2014-Jul-18 02:33N 49°10' W 123°56'1010.3
2014-Jul-18 01:33N 49°12' W 123°40'1212.5
2014-Jul-18 00:33N 49°07' W 123°23'1313.3
2014-Jul-17 23:34N 49°09' W 123°02'0 0.2
2014-Jul-17 22:33N 49°09' W 123°02'4 3.9
2014-Jul-17 21:33N 49°07' W 123°07'9 8.9
2014-Jul-17 20:33N 49°02' W 123°19'1111.4
2014-Jul-17 19:33N 48°51' W 123°21'1010.0
2014-Jul-17 18:33N 48°41' W 123°24'0 0.0
2014-Jul-17 17:33N 48°41' W 123°24'0 0.0
2014-Jul-17 16:33N 48°41' W 123°24'0 0.0
2014-Jul-17 15:34N 48°41' W 123°24'0 0.0
2014-Jul-17 14:34N 48°41' W 123°24'0 0.0
2014-Jul-17 13:34N 48°41' W 123°24'0 0.0
2014-Jul-17 12:33N 48°41' W 123°24'2 2.2
2014-Jul-17 11:33N 48°42' W 123°22'1211.8
2014-Jul-17 10:33N 48°54' W 123°18'1313.4
2014-Jul-17 09:34N 49°07' W 123°16'9 9.0
2014-Jul-17 08:33N 49°09' W 123°02'0 0.0
2014-Jul-17 07:33N 49°09' W 123°02'7 6.6
2014-Jul-17 06:33N 49°07' W 123°12'1212.2
2014-Jul-17 05:33N 49°09' W 123°31'1313.5
2014-Jul-17 04:33N 49°13' W 123°50'5 4.6
2014-Jul-17 03:33N 49°10' W 123°56'0 0.2
2014-Jul-17 02:34N 49°10' W 123°55'1111.0
2014-Jul-17 01:33N 49°12' W 123°39'1413.6
2014-Jul-17 00:33N 49°06' W 123°20'1211.8
2014-Jul-16 23:34N 49°09' W 123°02'0 0.0
2014-Jul-16 22:33N 49°09' W 123°02'7 7.2
2014-Jul-16 21:34N 49°08' W 123°13'10 9.9
2014-Jul-16 20:34N 48°58' W 123°17'1212.2
2014-Jul-16 19:33N 48°46' W 123°21'5 5.3
2014-Jul-16 18:33N 48°41' W 123°24'0 0.0
2014-Jul-16 17:33N 48°41' W 123°24'0 0.0
2014-Jul-16 16:33N 48°41' W 123°24'0 0.0
2014-Jul-16 15:33N 48°41' W 123°24'0 0.0
2014-Jul-16 14:34N 48°41' W 123°24'0 0.0
2014-Jul-16 13:33N 48°41' W 123°24'0 0.0
2014-Jul-16 12:33N 48°41' W 123°24'2 2.4
2014-Jul-16 11:34N 48°43' W 123°21'10 9.9
2014-Jul-16 10:33N 48°52' W 123°18'1413.8
2014-Jul-16 09:33N 49°06' W 123°18'1110.9
2014-Jul-16 08:33N 49°09' W 123°02'0 0.0
2014-Jul-16 07:33N 49°09' W 123°02'6 6.3
2014-Jul-16 06:33N 49°07' W 123°12'1211.8
2014-Jul-16 05:34N 49°08' W 123°29'1414.5
2014-Jul-16 04:33N 49°13' W 123°51'4 4.3
2014-Jul-16 03:34N 49°10' W 123°56'0 0.1
2014-Jul-16 02:33N 49°10' W 123°56'1010.1
2014-Jul-16 01:34N 49°12' W 123°41'1312.7
2014-Jul-16 00:33N 49°07' W 123°23'1312.9
2014-Jul-15 23:34N 49°08' W 123°03'1 0.6
2014-Jul-15 22:33N 49°09' W 123°02'5 5.5
2014-Jul-15 21:33N 49°07' W 123°10'7 7.2
2014-Jul-15 20:33N 49°04' W 123°20'1313.2
2014-Jul-15 19:33N 48°50' W 123°21'9 9.4
2014-Jul-15 18:33N 48°41' W 123°24'0 0.0
2014-Jul-15 17:33N 48°41' W 123°24'0 0.0
2014-Jul-15 16:33N 48°41' W 123°24'0 0.0
2014-Jul-15 15:33N 48°41' W 123°24'0 0.0
2014-Jul-15 14:33N 48°41' W 123°24'0 0.0
2014-Jul-15 13:33N 48°41' W 123°24'0 0.0
2014-Jul-15 12:33N 48°41' W 123°24'6 5.9
2014-Jul-15 11:34N 48°47' W 123°21'1010.2
2014-Jul-15 10:34N 48°57' W 123°18'1111.1
2014-Jul-15 09:34N 49°08' W 123°15'8 8.3
2014-Jul-15 08:33N 49°09' W 123°02'0 0.0
2014-Jul-15 07:33N 49°09' W 123°02'7 6.6
2014-Jul-15 06:33N 49°07' W 123°12'1212.1
2014-Jul-15 05:33N 49°08' W 123°31'1414.4
2014-Jul-15 04:34N 49°12' W 123°52'3 3.5
2014-Jul-15 03:34N 49°10' W 123°56'0 0.3
2014-Jul-15 02:33N 49°10' W 123°55'1212.0
2014-Jul-15 01:34N 49°12' W 123°37'1413.8
2014-Jul-15 00:33N 49°06' W 123°18'1110.9
2014-Jul-14 23:34N 49°09' W 123°02'0 0.0
2014-Jul-14 22:33N 49°09' W 123°02'0 0.0
2014-Jul-14 21:34N 49°09' W 123°02'0 0.0
2014-Jul-14 20:34N 49°09' W 123°02'0 0.0
2014-Jul-14 19:34N 49°09' W 123°02'0 0.0
2014-Jul-14 18:34N 49°09' W 123°02'0 0.0
2014-Jul-14 17:34N 49°09' W 123°02'0 0.0
2014-Jul-14 16:34N 49°09' W 123°02'0 0.0
2014-Jul-14 15:34N 49°09' W 123°02'0 0.0
2014-Jul-14 14:34N 49°09' W 123°02'0 0.0
2014-Jul-14 13:33N 49°09' W 123°02'0 0.0
2014-Jul-14 12:33N 49°09' W 123°02'0 0.0
2014-Jul-14 11:34N 49°09' W 123°02'0 0.0
2014-Jul-14 10:33N 49°09' W 123°02'0 0.0
2014-Jul-14 09:34N 49°09' W 123°02'0 0.0
2014-Jul-14 08:34N 49°09' W 123°02'0 0.0
2014-Jul-14 07:33N 49°09' W 123°02'0 0.0
2014-Jul-14 06:33N 49°09' W 123°02'0 0.0
2014-Jul-14 05:33N 49°09' W 123°02'0 0.0
2014-Jul-14 04:34N 49°09' W 123°02'0 0.0
2014-Jul-14 03:33N 49°09' W 123°02'0 0.0
2014-Jul-14 02:33N 49°09' W 123°02'0 0.0
2014-Jul-14 01:33N 49°09' W 123°02'0 0.0
2014-Jul-14 00:34N 49°09' W 123°02'0 0.0
2014-Jul-13 23:33N 49°09' W 123°02'0 0.0
2014-Jul-13 22:33N 49°09' W 123°02'0 0.0
2014-Jul-13 21:34N 49°09' W 123°02'0 0.0
2014-Jul-13 20:33N 49°09' W 123°02'0 0.0
2014-Jul-13 19:33N 49°09' W 123°02'0 0.0
2014-Jul-13 18:34N 49°09' W 123°02'  
Track history (hours):
 
Tides and Currents Weather Stations Pressure Air Temp Water Temp Dewpoint Dewpoint Depression Visibility Wind Speed Wind Dir Waves Ship Positions

Carrier Princess

Last reported at 2014-Jul-23 17:33 UTC. Time now 2014-Jul-23 18:11 UTC.
Position N 48°41' W 123°24'.

Length 112 m; draft 3 m.

Type: Cargo ship. MMSI: 316003656.

Date/timePositionNaut miles runAvg speedWind from/ knotsBaromVisibWave heightAir tempDewpointWater temp
2014-Jul-23 17:33N 48°41' W 123°24'0 0.0
2014-Jul-23 16:33N 48°41' W 123°24'0 0.0
2014-Jul-23 15:33N 48°41' W 123°24'0 0.0
2014-Jul-23 14:33N 48°41' W 123°24'0 0.0
2014-Jul-23 13:33N 48°41' W 123°24'0 0.0
2014-Jul-23 12:33N 48°41' W 123°24'1 0.9
2014-Jul-23 11:33N 48°42' W 123°24'1414.0
2014-Jul-23 10:33N 48°56' W 123°19'1212.5
2014-Jul-23 09:33N 49°08' W 123°14'8 8.0
2014-Jul-23 08:33N 49°09' W 123°02'0 0.0
2014-Jul-23 07:33N 49°09' W 123°02'7 6.7
2014-Jul-23 06:33N 49°07' W 123°12'1212.0
2014-Jul-23 05:33N 49°09' W 123°31'1312.6
2014-Jul-23 04:33N 49°13' W 123°49'6 5.7
2014-Jul-23 03:33N 49°10' W 123°56'0 0.1
2014-Jul-23 02:33N 49°10' W 123°56'1110.9
2014-Jul-23 01:34N 49°12' W 123°39'1413.5
2014-Jul-23 00:34N 49°06' W 123°21'1211.6
2014-Jul-22 23:33N 49°08' W 123°03'1 0.8
2014-Jul-22 22:33N 49°09' W 123°02'4 4.3
2014-Jul-22 21:33N 49°06' W 123°08'9 9.0
2014-Jul-22 20:33N 49°02' W 123°20'1211.5
2014-Jul-22 19:32N 48°51' W 123°21'10 9.8
2014-Jul-22 18:34N 48°41' W 123°24'0 0.0
2014-Jul-22 17:34N 48°41' W 123°24'0 0.0
2014-Jul-22 16:33N 48°41' W 123°24'0 0.0
2014-Jul-22 15:34N 48°41' W 123°24'0 0.0
2014-Jul-22 14:33N 48°41' W 123°24'0 0.0
2014-Jul-22 13:33N 48°41' W 123°24'0 0.0
2014-Jul-22 12:33N 48°41' W 123°24'0 0.2
2014-Jul-22 11:33N 48°41' W 123°24'1818.4
2014-Jul-22 10:33N 48°60' W 123°20'9 9.3
2014-Jul-22 09:34N 49°07' W 123°12'7 6.6
2014-Jul-22 08:33N 49°09' W 123°02'0 0.0
2014-Jul-22 07:33N 49°09' W 123°02'9 9.1
2014-Jul-22 06:33N 49°07' W 123°16'1212.1
2014-Jul-22 05:33N 49°09' W 123°34'1312.7
2014-Jul-22 04:33N 49°12' W 123°53'2 2.3
2014-Jul-22 03:33N 49°10' W 123°56'0 0.4
2014-Jul-22 02:33N 49°10' W 123°55'1111.4
2014-Jul-22 01:33N 49°12' W 123°38'1413.6
2014-Jul-22 00:34N 49°06' W 123°19'1111.5
2014-Jul-21 23:33N 49°09' W 123°02'0 0.1
2014-Jul-21 22:34N 49°09' W 123°02'0 0.1
2014-Jul-21 21:33N 49°09' W 123°02'0 0.0
2014-Jul-21 20:33N 49°09' W 123°02'0 0.0
2014-Jul-21 20:18N 49°09' W 123°02'0 0.0
2014-Jul-21 19:33N 49°09' W 123°02'0 0.0
2014-Jul-21 18:34N 49°09' W 123°02'0 0.0
2014-Jul-21 17:33N 49°09' W 123°02'0 0.0
2014-Jul-21 16:33N 49°09' W 123°02'0 0.0
2014-Jul-21 15:34N 49°09' W 123°02'0 0.0
2014-Jul-21 14:34N 49°09' W 123°02'0 0.0
2014-Jul-21 13:33N 49°09' W 123°02'0 0.0
2014-Jul-21 12:33N 49°09' W 123°02'0 0.0
2014-Jul-21 11:33N 49°09' W 123°02'0 0.0
2014-Jul-21 10:34N 49°09' W 123°02'0 0.0
2014-Jul-21 09:34N 49°09' W 123°02'0 0.0
2014-Jul-21 08:34N 49°09' W 123°02'0 0.0
2014-Jul-21 07:34N 49°09' W 123°02'0 0.0
2014-Jul-21 06:33N 49°09' W 123°02'0 0.0
2014-Jul-21 05:34N 49°09' W 123°02'0 0.0
2014-Jul-21 04:34N 49°09' W 123°02'0 0.0
2014-Jul-21 03:33N 49°09' W 123°02'0 0.0
2014-Jul-21 02:33N 49°09' W 123°02'0 0.0
2014-Jul-21 01:34N 49°09' W 123°02'0 0.0
2014-Jul-21 00:33N 49°09' W 123°02'0 0.0
2014-Jul-20 23:34N 49°09' W 123°02'0 0.0
2014-Jul-20 22:33N 49°09' W 123°02'0 0.0
2014-Jul-20 21:34N 49°09' W 123°02'0 0.0
2014-Jul-20 20:34N 49°09' W 123°02'0 0.0
2014-Jul-20 19:33N 49°09' W 123°02'0 0.0
2014-Jul-20 18:33N 49°09' W 123°02'0 0.0
2014-Jul-20 17:33N 49°09' W 123°02'0 0.0
2014-Jul-20 16:34N 49°09' W 123°02'0 0.0
2014-Jul-20 15:34N 49°09' W 123°02'6 6.3
2014-Jul-20 14:34N 49°07' W 123°11'9 9.0
2014-Jul-20 13:34N 49°07' W 123°25'1110.7
2014-Jul-20 12:34N 49°11' W 123°41'9 9.4
2014-Jul-20 11:33N 49°10' W 123°55'1 0.5
2014-Jul-20 10:33N 49°10' W 123°56'0 0.0
2014-Jul-20 09:33N 49°10' W 123°56'7 6.9
2014-Jul-20 08:33N 49°13' W 123°47'10 9.7
2014-Jul-20 07:34N 49°10' W 123°33'10 9.9
2014-Jul-20 06:34N 49°06' W 123°19'1110.5
2014-Jul-20 05:33N 49°08' W 123°03'1 0.7
2014-Jul-20 04:33N 49°09' W 123°02'0 0.0
2014-Jul-20 03:33N 49°09' W 123°02'0 0.0
2014-Jul-20 02:33N 49°09' W 123°02'0 0.0
2014-Jul-20 01:33N 49°09' W 123°02'0 0.0
2014-Jul-20 00:34N 49°09' W 123°02'0 0.0
2014-Jul-19 23:33N 49°09' W 123°02'0 0.0
2014-Jul-19 22:34N 49°09' W 123°02'4 3.7
2014-Jul-19 21:33N 49°07' W 123°07'1211.7
2014-Jul-19 20:33N 49°07' W 123°25'1313.2
2014-Jul-19 19:34N 49°12' W 123°43'8 8.2
2014-Jul-19 18:33N 49°10' W 123°56'0 0.0
2014-Jul-19 17:34N 49°10' W 123°56'0 0.0
2014-Jul-19 16:33N 49°10' W 123°56'0 0.0
2014-Jul-19 15:33N 49°10' W 123°56'0 0.0
2014-Jul-19 14:33N 49°10' W 123°56'0 0.0
2014-Jul-19 13:34N 49°10' W 123°56'0 0.0
2014-Jul-19 12:34N 49°10' W 123°56'5 5.4
2014-Jul-19 11:34N 49°13' W 123°49'1212.2
2014-Jul-19 10:33N 49°09' W 123°32'1313.0
2014-Jul-19 09:33N 49°07' W 123°12'7 6.7
2014-Jul-19 08:33N 49°09' W 123°02'0 0.0
2014-Jul-19 07:33N 49°09' W 123°02'9 9.2
2014-Jul-19 06:34N 49°07' W 123°16'1111.4
2014-Jul-19 05:33N 49°09' W 123°33'1111.2
2014-Jul-19 04:34N 49°13' W 123°49'5 5.2
2014-Jul-19 03:34N 49°10' W 123°56'0 0.2
2014-Jul-19 02:33N 49°10' W 123°55'1110.7
2014-Jul-19 01:34N 49°12' W 123°39'1312.5
2014-Jul-19 00:33N 49°07' W 123°22'1312.9
2014-Jul-18 23:33N 49°09' W 123°02'0 0.2
2014-Jul-18 22:33N 49°09' W 123°02'5 5.1
2014-Jul-18 21:33N 49°06' W 123°09'9 8.7
2014-Jul-18 20:33N 49°01' W 123°20'1010.3
2014-Jul-18 19:33N 48°51' W 123°21'1010.0
2014-Jul-18 18:33N 48°41' W 123°24'0 0.0
2014-Jul-18 17:34N 48°41' W 123°24'0 0.0
2014-Jul-18 16:33N 48°41' W 123°24'0 0.0
2014-Jul-18 15:33N 48°41' W 123°24'0 0.0
2014-Jul-18 14:33N 48°41' W 123°24'0 0.0
2014-Jul-18 13:34N 48°41' W 123°24'0 0.0
2014-Jul-18 12:34N 48°41' W 123°24'3 2.8
2014-Jul-18 11:33N 48°43' W 123°21'1010.4
2014-Jul-18 10:34N 48°53' W 123°18'1413.6
2014-Jul-18 09:33N 49°07' W 123°17'1010.0
2014-Jul-18 08:33N 49°09' W 123°02'0 0.0
2014-Jul-18 07:33N 49°09' W 123°02'9 9.0
2014-Jul-18 06:33N 49°07' W 123°16'1111.3
2014-Jul-18 05:33N 49°09' W 123°33'1211.6
2014-Jul-18 04:33N 49°13' W 123°50'5 4.9
2014-Jul-18 03:33N 49°10' W 123°56'0 0.1
2014-Jul-18 02:33N 49°10' W 123°56'1010.3
2014-Jul-18 01:33N 49°12' W 123°40'1212.5
2014-Jul-18 00:33N 49°07' W 123°23'1313.3
2014-Jul-17 23:34N 49°09' W 123°02'0 0.2
2014-Jul-17 22:33N 49°09' W 123°02'4 3.9
2014-Jul-17 21:33N 49°07' W 123°07'9 8.9
2014-Jul-17 20:33N 49°02' W 123°19'1111.4
2014-Jul-17 19:33N 48°51' W 123°21'1010.0
2014-Jul-17 18:33N 48°41' W 123°24'0 0.0
2014-Jul-17 17:33N 48°41' W 123°24'0 0.0
2014-Jul-17 16:33N 48°41' W 123°24'0 0.0
2014-Jul-17 15:34N 48°41' W 123°24'0 0.0
2014-Jul-17 14:34N 48°41' W 123°24'0 0.0
2014-Jul-17 13:34N 48°41' W 123°24'0 0.0
2014-Jul-17 12:33N 48°41' W 123°24'2 2.2
2014-Jul-17 11:33N 48°42' W 123°22'1211.8
2014-Jul-17 10:33N 48°54' W 123°18'1313.4
2014-Jul-17 09:34N 49°07' W 123°16'9 9.0
2014-Jul-17 08:33N 49°09' W 123°02'0 0.0
2014-Jul-17 07:33N 49°09' W 123°02'7 6.6
2014-Jul-17 06:33N 49°07' W 123°12'1212.2
2014-Jul-17 05:33N 49°09' W 123°31'1313.5
2014-Jul-17 04:33N 49°13' W 123°50'5 4.6
2014-Jul-17 03:33N 49°10' W 123°56'0 0.2
2014-Jul-17 02:34N 49°10' W 123°55'1111.0
2014-Jul-17 01:33N 49°12' W 123°39'1413.6
2014-Jul-17 00:33N 49°06' W 123°20'1211.8
2014-Jul-16 23:34N 49°09' W 123°02'0 0.0
2014-Jul-16 22:33N 49°09' W 123°02'7 7.2
2014-Jul-16 21:34N 49°08' W 123°13'10 9.9
2014-Jul-16 20:34N 48°58' W 123°17'1212.2
2014-Jul-16 19:33N 48°46' W 123°21'5 5.3
2014-Jul-16 18:33N 48°41' W 123°24'0 0.0
2014-Jul-16 17:33N 48°41' W 123°24'0 0.0
2014-Jul-16 16:33N 48°41' W 123°24'0 0.0
2014-Jul-16 15:33N 48°41' W 123°24'0 0.0
2014-Jul-16 14:34N 48°41' W 123°24'0 0.0
2014-Jul-16 13:33N 48°41' W 123°24'0 0.0
2014-Jul-16 12:33N 48°41' W 123°24'2 2.4
2014-Jul-16 11:34N 48°43' W 123°21'10 9.9
2014-Jul-16 10:33N 48°52' W 123°18'1413.8
2014-Jul-16 09:33N 49°06' W 123°18'1110.9
2014-Jul-16 08:33N 49°09' W 123°02'0 0.0
2014-Jul-16 07:33N 49°09' W 123°02'6 6.3
2014-Jul-16 06:33N 49°07' W 123°12'1211.8
2014-Jul-16 05:34N 49°08' W 123°29'1414.5
2014-Jul-16 04:33N 49°13' W 123°51'4 4.3
2014-Jul-16 03:34N 49°10' W 123°56'0 0.1
2014-Jul-16 02:33N 49°10' W 123°56'1010.1
2014-Jul-16 01:34N 49°12' W 123°41'1312.7
2014-Jul-16 00:33N 49°07' W 123°23'1312.9
2014-Jul-15 23:34N 49°08' W 123°03'1 0.6
2014-Jul-15 22:33N 49°09' W 123°02'5 5.5
2014-Jul-15 21:33N 49°07' W 123°10'7 7.2
2014-Jul-15 20:33N 49°04' W 123°20'1313.2
2014-Jul-15 19:33N 48°50' W 123°21'9 9.4
2014-Jul-15 18:33N 48°41' W 123°24'0 0.0
2014-Jul-15 17:33N 48°41' W 123°24'0 0.0
2014-Jul-15 16:33N 48°41' W 123°24'0 0.0
2014-Jul-15 15:33N 48°41' W 123°24'0 0.0
2014-Jul-15 14:33N 48°41' W 123°24'0 0.0
2014-Jul-15 13:33N 48°41' W 123°24'0 0.0
2014-Jul-15 12:33N 48°41' W 123°24'6 5.9
2014-Jul-15 11:34N 48°47' W 123°21'1010.2
2014-Jul-15 10:34N 48°57' W 123°18'1111.1
2014-Jul-15 09:34N 49°08' W 123°15'8 8.3
2014-Jul-15 08:33N 49°09' W 123°02'0 0.0
2014-Jul-15 07:33N 49°09' W 123°02'7 6.6
2014-Jul-15 06:33N 49°07' W 123°12'1212.1
2014-Jul-15 05:33N 49°08' W 123°31'1414.4
2014-Jul-15 04:34N 49°12' W 123°52'3 3.5
2014-Jul-15 03:34N 49°10' W 123°56'0 0.3
2014-Jul-15 02:33N 49°10' W 123°55'1212.0
2014-Jul-15 01:34N 49°12' W 123°37'1413.8
2014-Jul-15 00:33N 49°06' W 123°18'1110.9
2014-Jul-14 23:34N 49°09' W 123°02'0 0.0
2014-Jul-14 22:33N 49°09' W 123°02'0 0.0
2014-Jul-14 21:34N 49°09' W 123°02'0 0.0
2014-Jul-14 20:34N 49°09' W 123°02'0 0.0
2014-Jul-14 19:34N 49°09' W 123°02'0 0.0
2014-Jul-14 18:34N 49°09' W 123°02'0 0.0
2014-Jul-14 17:34N 49°09' W 123°02'0 0.0
2014-Jul-14 16:34N 49°09' W 123°02'0 0.0
2014-Jul-14 15:34N 49°09' W 123°02'0 0.0
2014-Jul-14 14:34N 49°09' W 123°02'0 0.0
2014-Jul-14 13:33N 49°09' W 123°02'0 0.0
2014-Jul-14 12:33N 49°09' W 123°02'0 0.0
2014-Jul-14 11:34N 49°09' W 123°02'0 0.0
2014-Jul-14 10:33N 49°09' W 123°02'0 0.0
2014-Jul-14 09:34N 49°09' W 123°02'0 0.0
2014-Jul-14 08:34N 49°09' W 123°02'0 0.0
2014-Jul-14 07:33N 49°09' W 123°02'0 0.0
2014-Jul-14 06:33N 49°09' W 123°02'0 0.0
2014-Jul-14 05:33N 49°09' W 123°02'0 0.0
2014-Jul-14 04:34N 49°09' W 123°02'0 0.0
2014-Jul-14 03:33N 49°09' W 123°02'0 0.0
2014-Jul-14 02:33N 49°09' W 123°02'0 0.0
2014-Jul-14 01:33N 49°09' W 123°02'0 0.0
2014-Jul-14 00:34N 49°09' W 123°02'0 0.0
2014-Jul-13 23:33N 49°09' W 123°02'0 0.0
2014-Jul-13 22:33N 49°09' W 123°02'0 0.0
2014-Jul-13 21:34N 49°09' W 123°02'0 0.0
2014-Jul-13 20:33N 49°09' W 123°02'0 0.0
2014-Jul-13 19:33N 49°09' W 123°02'0 0.0
2014-Jul-13 18:34N 49°09' W 123°02'  

Dump ship's entire track history